Time;durP1;ratioP1;P1;durP2;ratioP2;P2;SDS_P1;SDS_P2;PMS_P1;PMS_P2;Temp;Humidity;BMP_temperature;BMP_pressure;BME280_temperature;BME280_humidity;BME280_pressure;Samples;Min_cycle;Max_cycle;Signal;HPM_P1;HPM_P2
2022/06/26 00:00:06;;;;;;;1.53;1.10;;;;;;;;;;4957579;28;20187;-83
2022/06/26 00:03:12;;;;;;;1.93;1.50;;;;;;;;;;4964066;28;20174;-84
2022/06/26 00:06:17;;;;;;;3.00;1.47;;;;;;;;;;4949335;28;20583;-85
2022/06/26 00:09:21;;;;;;;2.53;1.20;;;;;;;;;;4937459;29;20523;-85
2022/06/26 00:12:25;;;;;;;1.33;1.10;;;;;;;;;;4935026;29;20179;-85
2022/06/26 00:15:29;;;;;;;1.37;1.27;;;;;;;;;;4957184;28;20235;-84
2022/06/26 00:18:33;;;;;;;3.33;1.50;;;;;;;;;;4926421;29;20188;-84
2022/06/26 00:21:37;;;;;;;5.37;2.10;;;;;;;;;;4947039;28;20194;-83
2022/06/26 00:24:42;;;;;;;1.60;1.50;;;;;;;;;;4963465;28;20183;-84
2022/06/26 00:27:46;;;;;;;4.30;1.50;;;;;;;;;;4935650;29;20175;-84
2022/06/26 00:30:50;;;;;;;2.93;1.70;;;;;;;;;;4936054;29;20184;-85
2022/06/26 00:33:55;;;;;;;2.83;1.70;;;;;;;;;;4947472;28;20194;-83
2022/06/26 00:36:59;;;;;;;2.93;1.60;;;;;;;;;;4936514;29;20231;-84
2022/06/26 00:40:04;;;;;;;4.77;1.60;;;;;;;;;;4929999;28;20186;-84
2022/06/26 00:43:07;;;;;;;2.70;1.30;;;;;;;;;;4944265;28;20187;-82
2022/06/26 00:46:11;;;;;;;5.87;1.60;;;;;;;;;;4964811;28;20723;-83
2022/06/26 00:49:16;;;;;;;2.30;1.70;;;;;;;;;;4965495;28;20179;-84
2022/06/26 00:52:22;;;;;;;3.77;1.43;;;;;;;;;;4954845;28;20190;-84
2022/06/26 00:55:26;;;;;;;3.10;1.43;;;;;;;;;;4927941;29;20219;-83
2022/06/26 00:58:30;;;;;;;2.27;1.27;;;;;;;;;;4939002;29;20184;-84
2022/06/26 01:01:34;;;;;;;1.40;1.30;;;;;;;;;;4927014;29;20188;-84
2022/06/26 01:04:38;;;;;;;2.07;1.43;;;;;;;;;;4928635;29;20207;-85
2022/06/26 01:07:42;;;;;;;3.20;1.57;;;;;;;;;;4926336;29;20200;-86
2022/06/26 01:10:49;;;;;;;2.23;1.53;;;;;;;;;;4935055;28;20190;-82
2022/06/26 01:13:55;;;;;;;1.87;1.40;;;;;;;;;;4948344;28;20196;-85
2022/06/26 01:16:59;;;;;;;1.47;1.37;;;;;;;;;;4942748;28;20234;-84
2022/06/26 01:20:05;;;;;;;6.03;1.90;;;;;;;;;;4960578;28;20187;-84
2022/06/26 01:23:10;;;;;;;1.50;1.40;;;;;;;;;;4956793;28;20183;-85
2022/06/26 01:26:16;;;;;;;2.53;1.50;;;;;;;;;;4957442;28;20214;-85
2022/06/26 01:29:21;;;;;;;4.87;1.53;;;;;;;;;;4957428;28;20182;-84
2022/06/26 01:32:25;;;;;;;3.13;1.73;;;;;;;;;;4968423;28;20183;-85
2022/06/26 01:35:30;;;;;;;2.23;1.70;;;;;;;;;;4922214;29;20227;-84
2022/06/26 01:38:39;;;;;;;1.60;1.50;;;;;;;;;;4931453;29;20177;-85
2022/06/26 01:41:43;;;;;;;4.33;1.83;;;;;;;;;;4921898;29;20203;-81
2022/06/26 01:44:48;;;;;;;1.93;1.60;;;;;;;;;;4931609;29;20667;-82
2022/06/26 01:47:54;;;;;;;1.87;1.77;;;;;;;;;;4920169;29;20181;-83
2022/06/26 01:51:01;;;;;;;2.23;1.77;;;;;;;;;;4918004;29;20184;-84
2022/06/26 01:54:06;;;;;;;2.43;1.90;;;;;;;;;;4918289;29;20184;-85
2022/06/26 01:57:11;;;;;;;2.73;2.00;;;;;;;;;;4917758;29;20204;-84
2022/06/26 02:00:15;;;;;;;4.43;2.07;;;;;;;;;;4920354;28;20184;-84
2022/06/26 02:03:21;;;;;;;4.60;1.80;;;;;;;;;;4940386;29;20575;-85
2022/06/26 02:06:25;;;;;;;2.20;1.80;;;;;;;;;;4932707;29;20212;-82
2022/06/26 02:16:23;;;;;;;3.20;1.70;;;;;;;;;;4922136;29;20231;-83
2022/06/26 02:19:27;;;;;;;2.30;1.83;;;;;;;;;;4951373;28;20186;-82
2022/06/26 02:22:31;;;;;;;2.60;1.70;;;;;;;;;;4913555;28;20180;-82
2022/06/26 02:25:36;;;;;;;2.13;1.87;;;;;;;;;;4932285;29;20572;-82
2022/06/26 02:28:41;;;;;;;4.97;1.80;;;;;;;;;;4940785;28;20195;-83
2022/06/26 02:31:45;;;;;;;3.97;2.17;;;;;;;;;;4969272;28;20183;-81
2022/06/26 02:34:49;;;;;;;2.23;2.03;;;;;;;;;;4909030;29;20184;-81
2022/06/26 02:37:57;;;;;;;3.20;1.80;;;;;;;;;;4968761;28;20202;-81
2022/06/26 02:41:02;;;;;;;4.83;1.97;;;;;;;;;;4947849;28;20179;-82
2022/06/26 02:44:06;;;;;;;3.90;1.90;;;;;;;;;;4969019;28;20175;-82
2022/06/26 02:47:11;;;;;;;4.40;1.83;;;;;;;;;;4957900;28;20549;-81
2022/06/26 02:50:15;;;;;;;5.27;1.90;;;;;;;;;;4969472;28;20179;-82
2022/06/26 02:53:20;;;;;;;4.20;1.93;;;;;;;;;;4942997;28;20555;-82
2022/06/26 02:56:24;;;;;;;5.67;2.03;;;;;;;;;;4938689;29;20218;-82
2022/06/26 02:59:28;;;;;;;3.20;2.10;;;;;;;;;;4943929;28;20198;-83
2022/06/26 03:02:32;;;;;;;4.53;2.20;;;;;;;;;;4941678;28;20175;-82
2022/06/26 03:05:40;;;;;;;4.73;2.30;;;;;;;;;;4935842;29;20219;-83
2022/06/26 03:08:44;;;;;;;2.10;1.90;;;;;;;;;;4956237;28;20190;-84
2022/06/26 03:11:49;;;;;;;5.50;2.10;;;;;;;;;;4946586;28;20528;-84
2022/06/26 03:14:54;;;;;;;3.03;2.20;;;;;;;;;;4928037;29;20184;-86
2022/06/26 03:17:59;;;;;;;3.53;2.23;;;;;;;;;;4955144;28;20559;-86
2022/06/26 03:21:04;;;;;;;4.73;1.97;;;;;;;;;;4957105;28;20186;-86
2022/06/26 03:24:08;;;;;;;3.63;2.10;;;;;;;;;;4955839;28;20190;-86
2022/06/26 03:27:12;;;;;;;3.50;2.30;;;;;;;;;;4955180;28;20258;-85
2022/06/26 03:30:16;;;;;;;3.03;2.30;;;;;;;;;;4956045;28;20228;-85
2022/06/26 03:33:26;;;;;;;3.93;2.20;;;;;;;;;;4946922;28;20187;-85
2022/06/26 03:36:30;;;;;;;3.47;2.27;;;;;;;;;;4967843;28;20563;-86
2022/06/26 03:39:36;;;;;;;2.20;2.00;;;;;;;;;;4956465;28;20195;-85
2022/06/26 03:42:40;;;;;;;2.37;2.10;;;;;;;;;;4957012;28;20186;-86
2022/06/26 03:45:44;;;;;;;5.40;1.93;;;;;;;;;;4953664;28;20226;-85
2022/06/26 03:48:49;;;;;;;5.07;2.03;;;;;;;;;;4932183;28;20195;-85
2022/06/26 03:51:53;;;;;;;2.73;2.10;;;;;;;;;;4945637;28;20195;-86
2022/06/26 03:54:58;;;;;;;2.07;1.80;;;;;;;;;;4931004;29;20200;-85
2022/06/26 03:58:03;;;;;;;3.30;2.00;;;;;;;;;;4929689;29;20219;-85
2022/06/26 04:01:10;;;;;;;2.87;1.83;;;;;;;;;;4929880;29;20180;-85
2022/06/26 04:04:14;;;;;;;2.43;1.90;;;;;;;;;;4919523;29;20176;-85
2022/06/26 04:07:18;;;;;;;2.67;1.83;;;;;;;;;;4929383;29;20180;-84
2022/06/26 04:10:25;;;;;;;1.90;1.80;;;;;;;;;;4956030;28;20195;-84
2022/06/26 04:13:29;;;;;;;3.13;1.80;;;;;;;;;;4967753;28;20195;-85
2022/06/26 04:16:33;;;;;;;5.03;1.90;;;;;;;;;;4957646;28;20230;-83
2022/06/26 04:19:38;;;;;;;2.40;1.80;;;;;;;;;;4958343;28;20533;-82
2022/06/26 04:22:42;;;;;;;2.70;2.13;;;;;;;;;;4921188;29;20199;-85
2022/06/26 04:25:50;;;;;;;2.30;2.07;;;;;;;;;;4918235;29;20223;-86
2022/06/26 04:28:56;;;;;;;2.97;2.60;;;;;;;;;;4908296;29;20191;-84
2022/06/26 04:32:00;;;;;;;2.30;2.00;;;;;;;;;;4909364;29;20176;-83
2022/06/26 04:35:05;;;;;;;2.77;2.13;;;;;;;;;;4929431;29;20192;-85
2022/06/26 04:38:09;;;;;;;4.53;2.60;;;;;;;;;;4908453;29;20215;-84
2022/06/26 04:41:31;;;;;;;5.70;2.17;;;;;;;;;;4929990;29;20175;-83
2022/06/26 04:44:36;;;;;;;3.20;2.13;;;;;;;;;;4930323;29;20621;-84
2022/06/26 04:47:40;;;;;;;3.77;1.90;;;;;;;;;;4927717;29;20196;-86
2022/06/26 04:50:50;;;;;;;7.33;2.07;;;;;;;;;;4926587;28;20187;-81
2022/06/26 04:53:56;;;;;;;4.40;2.30;;;;;;;;;;4961911;28;20626;-84
2022/06/26 04:57:00;;;;;;;8.97;2.27;;;;;;;;;;4959961;28;20218;-82
2022/06/26 05:00:11;;;;;;;4.03;2.33;;;;;;;;;;4935825;29;20552;-83
2022/06/26 05:03:19;;;;;;;7.53;2.30;;;;;;;;;;4933802;28;20192;-83
2022/06/26 05:06:37;;;;;;;7.70;2.23;;;;;;;;;;4948389;29;20219;-83
2022/06/26 05:09:51;;;;;;;5.70;2.17;;;;;;;;;;4937784;29;20180;-83
2022/06/26 05:12:56;;;;;;;5.07;2.43;;;;;;;;;;4927214;29;20203;-83
2022/06/26 05:16:26;;;;;;;4.23;2.30;;;;;;;;;;4929587;29;20219;-84
2022/06/26 05:19:30;;;;;;;4.87;2.20;;;;;;;;;;4962069;28;20198;-84
2022/06/26 05:22:36;;;;;;;3.17;1.97;;;;;;;;;;4956601;28;20520;-83
2022/06/26 05:25:42;;;;;;;2.63;1.90;;;;;;;;;;4956553;28;20215;-84
2022/06/26 05:28:47;;;;;;;2.03;1.87;;;;;;;;;;4946074;28;20179;-84
2022/06/26 05:31:51;;;;;;;3.00;2.00;;;;;;;;;;4956526;28;20183;-84
2022/06/26 05:34:55;;;;;;;2.30;1.70;;;;;;;;;;4956336;28;20179;-83
2022/06/26 05:38:00;;;;;;;2.67;2.00;;;;;;;;;;4967842;28;20230;-84
2022/06/26 05:41:05;;;;;;;3.50;2.03;;;;;;;;;;4956845;28;20515;-84
2022/06/26 05:44:12;;;;;;;3.17;2.20;;;;;;;;;;4956670;28;20182;-84
2022/06/26 05:47:23;;;;;;;5.20;2.30;;;;;;;;;;4956533;28;20190;-83
2022/06/26 05:51:01;;;;;;;3.53;1.97;;;;;;;;;;4919205;29;20188;-84
2022/06/26 05:54:12;;;;;;;6.60;2.00;;;;;;;;;;4919646;28;20192;-84
2022/06/26 05:57:36;;;;;;;4.80;2.00;;;;;;;;;;4958944;29;20687;-83
2022/06/26 06:01:19;;;;;;;7.03;2.13;;;;;;;;;;4933815;29;20185;-83
2022/06/26 06:04:26;;;;;;;5.13;2.20;;;;;;;;;;4917269;29;20184;-85
2022/06/26 06:07:36;;;;;;;2.70;2.30;;;;;;;;;;4920286;28;20181;-84
2022/06/26 06:10:40;;;;;;;2.87;2.50;;;;;;;;;;4955806;28;20187;-84
2022/06/26 06:13:44;;;;;;;5.77;2.43;;;;;;;;;;4966040;28;20183;-85
2022/06/26 06:16:48;;;;;;;3.87;2.40;;;;;;;;;;4954869;28;20681;-85
2022/06/26 06:19:52;;;;;;;2.60;2.40;;;;;;;;;;4917094;29;20211;-85
2022/06/26 06:23:03;;;;;;;4.83;2.53;;;;;;;;;;4932158;28;20195;-84
2022/06/26 06:26:07;;;;;;;4.97;2.27;;;;;;;;;;4927092;28;20559;-85
2022/06/26 06:29:11;;;;;;;5.87;2.10;;;;;;;;;;4918401;29;20207;-85
2022/06/26 06:32:15;;;;;;;4.03;2.30;;;;;;;;;;4948286;28;20204;-85
2022/06/26 06:35:20;;;;;;;3.43;2.00;;;;;;;;;;4955135;28;20694;-84
2022/06/26 06:38:25;;;;;;;4.17;2.37;;;;;;;;;;4950083;28;20219;-86
2022/06/26 06:41:32;;;;;;;5.77;2.00;;;;;;;;;;4935500;29;20196;-84
2022/06/26 06:44:42;;;;;;;3.27;2.07;;;;;;;;;;4941259;28;20664;-85
2022/06/26 06:48:10;;;;;;;4.70;2.30;;;;;;;;;;4946504;28;20184;-84
2022/06/26 06:51:17;;;;;;;9.70;2.40;;;;;;;;;;4938211;29;20183;-85
2022/06/26 06:54:21;;;;;;;4.73;1.83;;;;;;;;;;4925285;29;20183;-85
2022/06/26 06:57:25;;;;;;;2.73;1.53;;;;;;;;;;4927427;29;20180;-85
2022/06/26 07:00:29;;;;;;;3.10;1.50;;;;;;;;;;4917345;29;20182;-85
2022/06/26 07:03:33;;;;;;;3.23;1.70;;;;;;;;;;4905783;29;20180;-85
2022/06/26 07:06:38;;;;;;;1.93;1.33;;;;;;;;;;4956867;28;20229;-85
2022/06/26 07:09:42;;;;;;;2.83;1.40;;;;;;;;;;4906300;29;20177;-85
2022/06/26 07:12:58;;;;;;;1.70;1.50;;;;;;;;;;4905597;29;20181;-84
2022/06/26 07:16:03;;;;;;;2.00;1.50;;;;;;;;;;4936229;28;20236;-85
2022/06/26 07:19:07;;;;;;;1.93;1.40;;;;;;;;;;4952960;28;20568;-85
2022/06/26 07:22:12;;;;;;;2.90;1.43;;;;;;;;;;4952946;28;20203;-85
2022/06/26 07:25:16;;;;;;;2.47;1.37;;;;;;;;;;4948985;28;20220;-85
2022/06/26 07:28:32;;;;;;;3.13;1.47;;;;;;;;;;4925773;29;20194;-84
2022/06/26 07:31:36;;;;;;;1.90;1.40;;;;;;;;;;4955250;28;20205;-86
2022/06/26 07:34:40;;;;;;;4.33;1.40;;;;;;;;;;4943358;28;20190;-85
2022/06/26 07:37:46;;;;;;;2.97;1.47;;;;;;;;;;4965623;28;20201;-85
2022/06/26 07:40:52;;;;;;;1.67;1.57;;;;;;;;;;4954279;28;20175;-85
2022/06/26 07:43:59;;;;;;;3.33;1.73;;;;;;;;;;4949931;28;20196;-85
2022/06/26 07:47:03;;;;;;;1.55;1.45;;;;;;;;;;4945829;29;20571;-84
2022/06/26 07:50:30;;;;;;;4.00;1.42;;;;;;;;;;4952437;28;20181;-86
2022/06/26 07:53:36;;;;;;;1.60;1.20;;;;;;;;;;4948103;28;20692;-85
2022/06/26 07:56:41;;;;;;;1.88;1.25;;;;;;;;;;4954506;29;20221;-85
2022/06/26 07:59:45;;;;;;;1.63;1.20;;;;;;;;;;4960073;28;20226;-84
2022/06/26 08:02:49;;;;;;;1.20;1.08;;;;;;;;;;4947068;28;20198;-85
2022/06/26 08:05:53;;;;;;;4.28;1.10;;;;;;;;;;4956905;28;20226;-85
2022/06/26 08:08:57;;;;;;;2.85;1.17;;;;;;;;;;4953908;28;20193;-86
2022/06/26 08:12:02;;;;;;;1.67;1.10;;;;;;;;;;4956909;28;20181;-86
2022/06/26 08:15:07;;;;;;;1.67;1.20;;;;;;;;;;4916848;29;20230;-86
2022/06/26 08:18:12;;;;;;;3.22;1.10;;;;;;;;;;4927839;29;20218;-86
2022/06/26 08:24:41;;;;;;;1.27;1.10;;;;;;;;;;4936715;29;20522;-86
2022/06/26 08:27:45;;;;;;;3.83;1.20;;;;;;;;;;4916551;29;20181;-90
2022/06/26 08:30:50;;;;;;;3.10;1.10;;;;;;;;;;4929996;29;20181;-85
2022/06/26 08:33:54;;;;;;;1.52;0.90;;;;;;;;;;4951103;28;20191;-85
2022/06/26 08:36:58;;;;;;;4.50;1.10;;;;;;;;;;4957558;29;20219;-86
2022/06/26 08:40:03;;;;;;;2.97;1.00;;;;;;;;;;4923186;29;20204;-86
2022/06/26 08:43:08;;;;;;;1.95;1.20;;;;;;;;;;4926446;28;20195;-85
2022/06/26 08:46:13;;;;;;;2.65;1.10;;;;;;;;;;4955680;28;20222;-83
2022/06/26 08:49:21;;;;;;;5.18;0.90;;;;;;;;;;4953494;28;20179;-85
2022/06/26 08:52:29;;;;;;;1.13;1.02;;;;;;;;;;4953500;28;20183;-86
2022/06/26 08:55:33;;;;;;;1.52;1.17;;;;;;;;;;4964466;28;20218;-85
2022/06/26 08:58:37;;;;;;;1.52;1.00;;;;;;;;;;4916103;29;20208;-83
2022/06/26 09:01:42;;;;;;;1.00;0.90;;;;;;;;;;4926375;29;20184;-85
2022/06/26 09:04:46;;;;;;;1.88;0.80;;;;;;;;;;4926298;29;20184;-85
2022/06/26 09:07:52;;;;;;;2.42;1.20;;;;;;;;;;4916233;28;20184;-85
2022/06/26 09:10:57;;;;;;;1.35;0.90;;;;;;;;;;4954207;28;20663;-85
2022/06/26 09:14:01;;;;;;;2.88;0.70;;;;;;;;;;4954647;28;20179;-85
2022/06/26 09:17:05;;;;;;;2.05;0.80;;;;;;;;;;4953906;28;20230;-85
2022/06/26 09:20:09;;;;;;;1.73;0.80;;;;;;;;;;4954374;28;20206;-85
2022/06/26 09:23:15;;;;;;;6.35;1.00;;;;;;;;;;4964504;28;20183;-85
2022/06/26 09:26:19;;;;;;;1.67;0.80;;;;;;;;;;4928690;28;20224;-85
2022/06/26 09:29:23;;;;;;;2.92;0.80;;;;;;;;;;4944673;29;20180;-84
2022/06/26 09:32:30;;;;;;;1.50;0.70;;;;;;;;;;4956869;29;20204;-85
2022/06/26 09:35:36;;;;;;;3.80;1.42;;;;;;;;;;4945405;28;20326;-85
2022/06/26 09:38:40;;;;;;;1.25;0.85;;;;;;;;;;4934438;28;20559;-84
2022/06/26 09:41:44;;;;;;;4.07;1.08;;;;;;;;;;4952983;28;20702;-84
2022/06/26 09:44:51;;;;;;;1.95;0.85;;;;;;;;;;4937180;28;20199;-85
2022/06/26 09:47:56;;;;;;;0.88;0.60;;;;;;;;;;4938662;28;20643;-84
2022/06/26 09:51:01;;;;;;;2.40;0.77;;;;;;;;;;4956587;28;20172;-85
2022/06/26 09:54:05;;;;;;;1.98;0.80;;;;;;;;;;4966504;28;20183;-85
2022/06/26 09:57:10;;;;;;;2.30;0.70;;;;;;;;;;4956006;28;20682;-84
2022/06/26 10:00:14;;;;;;;1.58;0.80;;;;;;;;;;4928223;29;20224;-84
2022/06/26 10:06:43;;;;;;;1.27;1.10;;;;;;;;;;4939142;29;20224;-84
2022/06/26 10:09:47;;;;;;;2.38;0.60;;;;;;;;;;4966410;28;20655;-84
2022/06/26 10:13:06;;;;;;;2.83;0.80;;;;;;;;;;4951290;28;20192;-85
2022/06/26 10:16:34;;;;;;;1.50;0.88;;;;;;;;;;4943079;28;20226;-84
2022/06/26 10:19:45;;;;;;;1.30;0.63;;;;;;;;;;5002485;23;20731;-85
2022/06/26 10:22:50;;;;;;;0.65;0.65;;;;;;;;;;4962693;28;20178;-86
2022/06/26 10:25:54;;;;;;;1.05;0.60;;;;;;;;;;4962815;28;20187;-86
2022/06/26 10:28:59;;;;;;;0.63;0.60;;;;;;;;;;4984938;28;20171;-86
2022/06/26 10:32:04;;;;;;;2.78;0.80;;;;;;;;;;4974213;28;20190;-86
2022/06/26 10:35:11;;;;;;;3.58;2.65;;;;;;;;;;4943570;28;20199;-86
2022/06/26 10:38:27;;;;;;;2.58;1.75;;;;;;;;;;4955831;28;20183;-86
2022/06/26 10:45:27;;;;;;;0.60;0.50;;;;;;;;;;4954490;28;20187;-86
2022/06/26 10:48:31;;;;;;;1.15;0.60;;;;;;;;;;4942536;28;20179;-84
2022/06/26 10:51:41;;;;;;;0.98;0.80;;;;;;;;;;4954324;28;20180;-85
2022/06/26 10:54:45;;;;;;;1.42;0.90;;;;;;;;;;4964804;28;20661;-85
2022/06/26 10:57:49;;;;;;;5.07;0.80;;;;;;;;;;4965570;28;20638;-85
2022/06/26 11:00:57;;;;;;;2.63;0.95;;;;;;;;;;4964556;28;20717;-85
2022/06/26 11:04:04;;;;;;;1.23;0.70;;;;;;;;;;4954141;28;20191;-84
2022/06/26 11:07:08;;;;;;;0.90;0.70;;;;;;;;;;4954259;28;20203;-84
2022/06/26 11:10:15;;;;;;;0.82;0.70;;;;;;;;;;4954872;28;20222;-84
2022/06/26 11:13:19;;;;;;;1.25;0.60;;;;;;;;;;4961320;28;20199;-84
2022/06/26 11:16:45;;;;;;;1.95;0.60;;;;;;;;;;4965739;28;20179;-85
2022/06/26 11:23:18;;;;;;;1.50;0.60;;;;;;;;;;4954991;28;20188;-84
2022/06/26 11:26:23;;;;;;;1.42;0.50;;;;;;;;;;4954250;28;20662;-84
2022/06/26 11:29:27;;;;;;;3.10;0.90;;;;;;;;;;4957415;28;20222;-84
2022/06/26 11:32:31;;;;;;;1.92;0.60;;;;;;;;;;4962898;28;20226;-84
2022/06/26 11:35:36;;;;;;;2.33;0.63;;;;;;;;;;4964436;28;20206;-84
2022/06/26 11:38:48;;;;;;;0.93;0.80;;;;;;;;;;4954026;28;20175;-84
2022/06/26 11:41:52;;;;;;;1.20;0.70;;;;;;;;;;4964636;28;20180;-84
2022/06/26 11:44:57;;;;;;;1.10;0.70;;;;;;;;;;4942411;28;20203;-84
2022/06/26 11:48:06;;;;;;;2.80;0.90;;;;;;;;;;4942472;28;20603;-84
2022/06/26 11:51:13;;;;;;;1.27;0.70;;;;;;;;;;4959759;28;20194;-84
2022/06/26 11:54:25;;;;;;;0.90;0.60;;;;;;;;;;4984473;28;20519;-84
2022/06/26 11:57:29;;;;;;;0.82;0.50;;;;;;;;;;4972915;28;20186;-84
2022/06/26 12:00:33;;;;;;;2.67;0.77;;;;;;;;;;4983156;28;20218;-85
2022/06/26 12:03:47;;;;;;;0.77;0.50;;;;;;;;;;4983835;28;20526;-84
2022/06/26 12:06:52;;;;;;;1.08;0.68;;;;;;;;;;4972618;28;20187;-84
2022/06/26 12:09:57;;;;;;;1.05;0.77;;;;;;;;;;4954819;28;20218;-84
2022/06/26 12:13:02;;;;;;;1.23;0.60;;;;;;;;;;4953139;28;20183;-84
2022/06/26 12:16:10;;;;;;;0.63;0.52;;;;;;;;;;4964055;28;20183;-84
2022/06/26 12:19:16;;;;;;;1.85;0.60;;;;;;;;;;4978636;28;20221;-84
2022/06/26 12:22:33;;;;;;;5.70;0.77;;;;;;;;;;4971534;28;20202;-84
2022/06/26 12:25:40;;;;;;;1.17;0.55;;;;;;;;;;4960672;28;20198;-84
2022/06/26 12:28:49;;;;;;;0.75;0.60;;;;;;;;;;4961347;28;20187;-84
2022/06/26 12:31:53;;;;;;;0.75;0.60;;;;;;;;;;4952851;28;20619;-84
2022/06/26 12:34:57;;;;;;;0.50;0.50;;;;;;;;;;4942075;28;20179;-84
2022/06/26 12:38:03;;;;;;;0.47;0.40;;;;;;;;;;4958638;28;20198;-84
2022/06/26 12:41:16;;;;;;;1.20;0.50;;;;;;;;;;4945195;28;20210;-85
2022/06/26 12:44:20;;;;;;;3.08;0.60;;;;;;;;;;4961032;28;20206;-84
2022/06/26 12:47:25;;;;;;;0.65;0.60;;;;;;;;;;4952886;28;20206;-84
2022/06/26 12:50:30;;;;;;;0.88;0.50;;;;;;;;;;4985468;28;20215;-84
2022/06/26 12:53:35;;;;;;;2.35;0.52;;;;;;;;;;4959728;28;20187;-84
2022/06/26 12:56:39;;;;;;;0.80;0.70;;;;;;;;;;4977210;28;20665;-84
2022/06/26 12:59:43;;;;;;;2.08;0.70;;;;;;;;;;4982072;28;20217;-84
2022/06/26 13:02:47;;;;;;;1.33;0.60;;;;;;;;;;4950475;28;20221;-84
2022/06/26 13:05:51;;;;;;;2.00;0.60;;;;;;;;;;4960872;28;20511;-84
2022/06/26 13:08:55;;;;;;;2.03;0.55;;;;;;;;;;4983328;28;20202;-84
2022/06/26 13:11:59;;;;;;;1.83;0.70;;;;;;;;;;4950398;28;20179;-84
2022/06/26 13:15:04;;;;;;;0.93;0.50;;;;;;;;;;4967450;28;20179;-84
2022/06/26 13:18:09;;;;;;;0.75;0.70;;;;;;;;;;4944954;28;20662;-85
2022/06/26 13:21:14;;;;;;;1.65;0.50;;;;;;;;;;4979168;28;20567;-84
2022/06/26 13:24:18;;;;;;;0.90;0.63;;;;;;;;;;4970628;28;20207;-84
2022/06/26 13:27:22;;;;;;;1.15;0.82;;;;;;;;;;4975260;28;20179;-84
2022/06/26 13:30:26;;;;;;;0.70;0.63;;;;;;;;;;4973926;28;20218;-84
2022/06/26 13:33:31;;;;;;;1.58;0.73;;;;;;;;;;4955823;28;20198;-84
2022/06/26 13:36:35;;;;;;;2.25;0.70;;;;;;;;;;4955961;28;20187;-85
2022/06/26 13:39:39;;;;;;;0.95;0.65;;;;;;;;;;4955677;28;20219;-84
2022/06/26 13:42:43;;;;;;;0.85;0.50;;;;;;;;;;4966807;28;20188;-84
2022/06/26 13:45:47;;;;;;;0.73;0.70;;;;;;;;;;4963381;28;20194;-84
2022/06/26 13:48:52;;;;;;;0.95;0.50;;;;;;;;;;4985308;28;20194;-85
2022/06/26 13:51:56;;;;;;;1.83;0.80;;;;;;;;;;4973355;28;20195;-85
2022/06/26 13:55:00;;;;;;;0.50;0.50;;;;;;;;;;4952805;28;20255;-85
2022/06/26 13:58:04;;;;;;;2.33;0.60;;;;;;;;;;4975908;28;20199;-86
2022/06/26 14:01:08;;;;;;;1.38;0.63;;;;;;;;;;4948091;28;20211;-86
2022/06/26 14:04:12;;;;;;;0.95;0.60;;;;;;;;;;4943951;28;20187;-85
2022/06/26 14:07:17;;;;;;;3.22;0.70;;;;;;;;;;4944302;28;20179;-86
2022/06/26 14:10:20;;;;;;;1.45;0.50;;;;;;;;;;4963089;28;20217;-85
2022/06/26 14:13:25;;;;;;;1.52;0.50;;;;;;;;;;4976688;28;20194;-86
2022/06/26 14:16:29;;;;;;;0.90;0.65;;;;;;;;;;4988580;28;20198;-87
2022/06/26 14:19:34;;;;;;;1.52;0.52;;;;;;;;;;4949225;28;20230;-89
2022/06/26 14:26:03;;;;;;;2.65;0.50;;;;;;;;;;4992997;28;20187;-85
2022/06/26 14:29:07;;;;;;;0.85;0.50;;;;;;;;;;4976914;28;20218;-86
2022/06/26 14:32:12;;;;;;;0.82;0.60;;;;;;;;;;4979915;28;20687;-84
2022/06/26 14:35:16;;;;;;;0.50;0.50;;;;;;;;;;4967419;28;20198;-85
2022/06/26 14:38:21;;;;;;;1.77;0.60;;;;;;;;;;4978061;28;20178;-84
2022/06/26 14:41:25;;;;;;;1.08;0.70;;;;;;;;;;4977144;28;20673;-84
2022/06/26 14:44:29;;;;;;;0.95;0.60;;;;;;;;;;4977103;28;20182;-84
2022/06/26 14:47:33;;;;;;;1.70;0.52;;;;;;;;;;4978847;28;20202;-84
2022/06/26 14:50:37;;;;;;;0.45;0.45;;;;;;;;;;4977359;28;20210;-84
2022/06/26 14:53:43;;;;;;;2.95;0.60;;;;;;;;;;4978110;28;20182;-84
2022/06/26 14:56:47;;;;;;;1.80;0.70;;;;;;;;;;4977193;28;20187;-83
2022/06/26 14:59:51;;;;;;;0.65;0.60;;;;;;;;;;4973103;28;20214;-83
2022/06/26 15:02:55;;;;;;;1.67;0.60;;;;;;;;;;4971318;28;20187;-83
2022/06/26 15:05:59;;;;;;;0.82;0.60;;;;;;;;;;4968580;28;20531;-83
2022/06/26 15:09:03;;;;;;;0.50;0.50;;;;;;;;;;4968303;28;20218;-85
2022/06/26 15:12:08;;;;;;;0.93;0.70;;;;;;;;;;4978281;28;20178;-86
2022/06/26 15:15:13;;;;;;;0.65;0.50;;;;;;;;;;4979619;28;20175;-84
2022/06/26 15:18:18;;;;;;;0.50;0.50;;;;;;;;;;4969832;28;20186;-86
2022/06/26 15:21:22;;;;;;;0.68;0.50;;;;;;;;;;4966520;28;20202;-84
2022/06/26 15:24:26;;;;;;;2.05;0.60;;;;;;;;;;4985816;28;20638;-86
2022/06/26 15:27:30;;;;;;;1.75;0.60;;;;;;;;;;4985781;28;20178;-85
2022/06/26 15:30:35;;;;;;;0.77;0.60;;;;;;;;;;4985944;28;20681;-86
2022/06/26 15:33:39;;;;;;;1.77;0.60;;;;;;;;;;4963444;28;20182;-85
2022/06/26 15:36:43;;;;;;;0.68;0.60;;;;;;;;;;4964560;28;20183;-86
2022/06/26 15:39:48;;;;;;;0.90;0.65;;;;;;;;;;4975457;28;20226;-86
2022/06/26 15:42:53;;;;;;;0.90;0.60;;;;;;;;;;4965258;28;20513;-85
2022/06/26 15:45:57;;;;;;;1.65;0.65;;;;;;;;;;4977657;28;20175;-86
2022/06/26 15:49:01;;;;;;;0.70;0.63;;;;;;;;;;4966773;28;20206;-85
2022/06/26 15:52:05;;;;;;;0.90;0.52;;;;;;;;;;4975350;28;20649;-85
2022/06/26 15:55:09;;;;;;;0.80;0.73;;;;;;;;;;4988481;28;20178;-85
2022/06/26 15:58:14;;;;;;;1.98;0.70;;;;;;;;;;4965711;28;20637;-85
2022/06/26 16:01:18;;;;;;;2.63;0.80;;;;;;;;;;4979238;28;20210;-85
2022/06/26 16:04:22;;;;;;;1.08;0.77;;;;;;;;;;4990246;28;20499;-85
2022/06/26 16:07:27;;;;;;;0.90;0.60;;;;;;;;;;4989608;28;20178;-85
2022/06/26 16:10:31;;;;;;;2.05;0.60;;;;;;;;;;4976630;28;20222;-85
2022/06/26 16:13:35;;;;;;;1.48;0.50;;;;;;;;;;4970368;28;20179;-85
2022/06/26 16:16:39;;;;;;;3.08;0.65;;;;;;;;;;4982269;28;20178;-86
2022/06/26 16:19:43;;;;;;;1.20;0.55;;;;;;;;;;5001837;23;20234;-86
2022/06/26 16:26:16;;;;;;;0.80;0.70;;;;;;;;;;4982597;28;20192;-85
2022/06/26 16:29:20;;;;;;;0.68;0.50;;;;;;;;;;4970470;28;20672;-86
2022/06/26 16:32:24;;;;;;;1.92;0.50;;;;;;;;;;4960450;28;20185;-85
2022/06/26 16:35:29;;;;;;;0.60;0.45;;;;;;;;;;4970386;28;20190;-88
2022/06/26 16:38:33;;;;;;;0.90;0.55;;;;;;;;;;4960702;28;20181;-86
2022/06/26 16:41:39;;;;;;;2.05;0.55;;;;;;;;;;4959822;28;20230;-87
2022/06/26 16:44:43;;;;;;;0.68;0.60;;;;;;;;;;4959958;28;20616;-86
2022/06/26 16:47:47;;;;;;;0.82;0.73;;;;;;;;;;4982566;28;20182;-86
2022/06/26 16:50:53;;;;;;;2.58;0.55;;;;;;;;;;4970870;28;20560;-86
2022/06/26 16:53:57;;;;;;;0.95;0.50;;;;;;;;;;4960297;28;20656;-87
2022/06/26 16:57:01;;;;;;;2.30;0.50;;;;;;;;;;4971101;28;20184;-87
2022/06/26 17:00:06;;;;;;;1.00;0.60;;;;;;;;;;4960421;28;20687;-85
2022/06/26 17:03:13;;;;;;;0.77;0.60;;;;;;;;;;4994391;28;20177;-86
2022/06/26 17:06:17;;;;;;;0.50;0.50;;;;;;;;;;4960013;28;20187;-86
2022/06/26 17:09:22;;;;;;;1.42;0.57;;;;;;;;;;4959942;28;20184;-87
2022/06/26 17:12:26;;;;;;;2.85;0.75;;;;;;;;;;4982354;28;20182;-86
2022/06/26 17:15:30;;;;;;;2.00;0.65;;;;;;;;;;4954789;28;20529;-87
2022/06/26 17:18:34;;;;;;;0.85;0.60;;;;;;;;;;4970469;28;20189;-86
2022/06/26 17:21:38;;;;;;;0.70;0.52;;;;;;;;;;4959630;28;20231;-87
2022/06/26 17:24:42;;;;;;;0.88;0.50;;;;;;;;;;4973274;28;20205;-87
2022/06/26 17:27:47;;;;;;;2.25;0.77;;;;;;;;;;4945765;28;20193;-86
2022/06/26 17:30:51;;;;;;;1.85;0.60;;;;;;;;;;4948068;28;20218;-87
2022/06/26 17:33:55;;;;;;;0.70;0.60;;;;;;;;;;4951581;28;20193;-87
2022/06/26 17:36:59;;;;;;;2.25;0.70;;;;;;;;;;4921920;29;20195;-87
2022/06/26 17:40:06;;;;;;;1.65;0.52;;;;;;;;;;4933228;28;20230;-88
2022/06/26 17:43:10;;;;;;;0.93;0.47;;;;;;;;;;4941506;28;20185;-88
2022/06/26 17:46:14;;;;;;;2.15;0.50;;;;;;;;;;4940309;28;20189;-88
2022/06/26 17:49:18;;;;;;;2.08;0.63;;;;;;;;;;4940945;28;20639;-88
2022/06/26 17:52:23;;;;;;;2.80;0.55;;;;;;;;;;4941041;28;20178;-88
2022/06/26 17:55:29;;;;;;;2.30;0.60;;;;;;;;;;4942699;28;20200;-83
2022/06/26 17:58:33;;;;;;;0.50;0.50;;;;;;;;;;4965844;28;20193;-83
2022/06/26 18:01:37;;;;;;;1.20;0.70;;;;;;;;;;4977437;28;20223;-85
2022/06/26 18:04:41;;;;;;;0.63;0.50;;;;;;;;;;4966515;28;20540;-87
2022/06/26 18:07:47;;;;;;;1.75;0.70;;;;;;;;;;4972882;28;20671;-84
2022/06/26 18:10:52;;;;;;;0.90;0.60;;;;;;;;;;4965500;28;20218;-84
2022/06/26 18:13:56;;;;;;;0.82;0.68;;;;;;;;;;4959302;28;20187;-85
2022/06/26 18:17:01;;;;;;;0.80;0.55;;;;;;;;;;4943830;28;20190;-84
2022/06/26 18:20:06;;;;;;;0.80;0.50;;;;;;;;;;4944395;28;20226;-84
2022/06/26 18:23:11;;;;;;;1.40;0.63;;;;;;;;;;4978454;28;20211;-84
2022/06/26 18:26:15;;;;;;;1.00;0.70;;;;;;;;;;4936217;29;20512;-84
2022/06/26 18:29:19;;;;;;;1.60;0.60;;;;;;;;;;4950956;28;20523;-84
2022/06/26 18:32:25;;;;;;;1.27;0.70;;;;;;;;;;4948666;28;21389;-84
2022/06/26 18:35:29;;;;;;;0.63;0.50;;;;;;;;;;4984666;28;20194;-84
2022/06/26 18:38:34;;;;;;;0.60;0.60;;;;;;;;;;4966663;28;20210;-84
2022/06/26 18:41:39;;;;;;;1.03;0.70;;;;;;;;;;4943904;28;20236;-84
2022/06/26 18:44:43;;;;;;;2.17;0.70;;;;;;;;;;4965763;28;20642;-84
2022/06/26 18:47:47;;;;;;;1.07;0.67;;;;;;;;;;4954943;28;20178;-84
2022/06/26 18:50:51;;;;;;;3.07;0.83;;;;;;;;;;4943801;28;20685;-84
2022/06/26 18:53:55;;;;;;;1.73;0.60;;;;;;;;;;4954903;28;20203;-84
2022/06/26 18:57:00;;;;;;;0.83;0.60;;;;;;;;;;4954972;28;20199;-84
2022/06/26 19:00:06;;;;;;;1.40;0.70;;;;;;;;;;4955014;28;20218;-84